sensor_id;sensor_type;location;lat;lon;timestamp;P1;durP1;ratioP1;P2;durP2;ratioP2
22248;SDS011;67538;52.180;5.646;2023-04-19T00:02:23;12.50;;;9.87;;
22248;SDS011;67538;52.180;5.646;2023-04-19T00:04:52;12.30;;;9.93;;
22248;SDS011;67538;52.180;5.646;2023-04-19T00:07:19;15.43;;;10.20;;
22248;SDS011;67538;52.180;5.646;2023-04-19T00:09:46;13.60;;;10.35;;
22248;SDS011;67538;52.180;5.646;2023-04-19T00:12:13;16.73;;;10.70;;
22248;SDS011;67538;52.180;5.646;2023-04-19T00:14:40;14.68;;;10.57;;
22248;SDS011;67538;52.180;5.646;2023-04-19T00:17:07;13.67;;;10.40;;
22248;SDS011;67538;52.180;5.646;2023-04-19T00:19:35;14.05;;;10.55;;
22248;SDS011;67538;52.180;5.646;2023-04-19T00:22:04;13.23;;;10.52;;
22248;SDS011;67538;52.180;5.646;2023-04-19T00:24:31;14.70;;;10.68;;
22248;SDS011;67538;52.180;5.646;2023-04-19T00:26:58;16.65;;;11.48;;
22248;SDS011;67538;52.180;5.646;2023-04-19T00:29:26;13.32;;;10.57;;
22248;SDS011;67538;52.180;5.646;2023-04-19T00:31:53;16.05;;;11.02;;
22248;SDS011;67538;52.180;5.646;2023-04-19T00:34:20;14.98;;;11.55;;
22248;SDS011;67538;52.180;5.646;2023-04-19T00:36:47;14.40;;;11.18;;
22248;SDS011;67538;52.180;5.646;2023-04-19T00:39:15;16.87;;;11.17;;
22248;SDS011;67538;52.180;5.646;2023-04-19T00:41:42;15.65;;;11.35;;
22248;SDS011;67538;52.180;5.646;2023-04-19T00:44:10;17.30;;;11.98;;
22248;SDS011;67538;52.180;5.646;2023-04-19T00:46:37;16.85;;;12.07;;
22248;SDS011;67538;52.180;5.646;2023-04-19T00:49:04;16.17;;;12.07;;
22248;SDS011;67538;52.180;5.646;2023-04-19T00:51:31;14.23;;;11.87;;
22248;SDS011;67538;52.180;5.646;2023-04-19T00:53:59;20.17;;;12.27;;
22248;SDS011;67538;52.180;5.646;2023-04-19T00:56:29;15.35;;;11.77;;
22248;SDS011;67538;52.180;5.646;2023-04-19T00:58:57;16.33;;;12.05;;
22248;SDS011;67538;52.180;5.646;2023-04-19T01:01:24;16.08;;;12.32;;
22248;SDS011;67538;52.180;5.646;2023-04-19T01:03:51;17.00;;;12.47;;
22248;SDS011;67538;52.180;5.646;2023-04-19T01:06:19;16.88;;;12.98;;
22248;SDS011;67538;52.180;5.646;2023-04-19T01:08:46;18.55;;;12.68;;
22248;SDS011;67538;52.180;5.646;2023-04-19T01:11:13;18.85;;;12.88;;
22248;SDS011;67538;52.180;5.646;2023-04-19T01:13:42;18.15;;;13.13;;
22248;SDS011;67538;52.180;5.646;2023-04-19T01:16:11;18.33;;;12.83;;
22248;SDS011;67538;52.180;5.646;2023-04-19T01:18:38;16.83;;;12.65;;
22248;SDS011;67538;52.180;5.646;2023-04-19T01:21:05;16.90;;;12.25;;
22248;SDS011;67538;52.180;5.646;2023-04-19T01:23:34;19.98;;;12.95;;
22248;SDS011;67538;52.180;5.646;2023-04-19T01:26:03;16.70;;;12.60;;
22248;SDS011;67538;52.180;5.646;2023-04-19T01:28:30;16.77;;;13.35;;
22248;SDS011;67538;52.180;5.646;2023-04-19T01:30:58;20.15;;;13.80;;
22248;SDS011;67538;52.180;5.646;2023-04-19T01:33:25;17.50;;;13.18;;
22248;SDS011;67538;52.180;5.646;2023-04-19T01:35:52;17.08;;;13.00;;
22248;SDS011;67538;52.180;5.646;2023-04-19T01:38:19;17.05;;;13.43;;
22248;SDS011;67538;52.180;5.646;2023-04-19T01:40:47;18.83;;;13.27;;
22248;SDS011;67538;52.180;5.646;2023-04-19T01:43:15;18.73;;;12.83;;
22248;SDS011;67538;52.180;5.646;2023-04-19T01:45:42;16.58;;;13.35;;
22248;SDS011;67538;52.180;5.646;2023-04-19T01:48:10;17.55;;;12.90;;
22248;SDS011;67538;52.180;5.646;2023-04-19T01:50:37;17.97;;;13.53;;
22248;SDS011;67538;52.180;5.646;2023-04-19T01:53:04;17.52;;;12.93;;
22248;SDS011;67538;52.180;5.646;2023-04-19T01:55:31;20.05;;;13.35;;
22248;SDS011;67538;52.180;5.646;2023-04-19T01:57:59;18.45;;;13.50;;
22248;SDS011;67538;52.180;5.646;2023-04-19T02:00:27;19.45;;;13.50;;
22248;SDS011;67538;52.180;5.646;2023-04-19T02:02:54;21.00;;;13.95;;
22248;SDS011;67538;52.180;5.646;2023-04-19T02:05:21;21.30;;;13.90;;
22248;SDS011;67538;52.180;5.646;2023-04-19T02:07:48;20.80;;;14.20;;
22248;SDS011;67538;52.180;5.646;2023-04-19T02:10:15;19.33;;;13.55;;
22248;SDS011;67538;52.180;5.646;2023-04-19T02:12:42;18.73;;;13.57;;
22248;SDS011;67538;52.180;5.646;2023-04-19T02:15:11;20.45;;;13.30;;
22248;SDS011;67538;52.180;5.646;2023-04-19T02:17:38;21.67;;;13.80;;
22248;SDS011;67538;52.180;5.646;2023-04-19T02:20:05;19.13;;;13.53;;
22248;SDS011;67538;52.180;5.646;2023-04-19T02:22:33;19.42;;;13.50;;
22248;SDS011;67538;52.180;5.646;2023-04-19T02:25:00;19.88;;;13.32;;
22248;SDS011;67538;52.180;5.646;2023-04-19T02:27:28;19.65;;;13.57;;
22248;SDS011;67538;52.180;5.646;2023-04-19T02:29:55;19.23;;;13.52;;
22248;SDS011;67538;52.180;5.646;2023-04-19T02:32:24;22.27;;;13.88;;
22248;SDS011;67538;52.180;5.646;2023-04-19T02:34:51;20.02;;;14.18;;
22248;SDS011;67538;52.180;5.646;2023-04-19T02:37:18;18.98;;;13.52;;
22248;SDS011;67538;52.180;5.646;2023-04-19T02:39:45;18.00;;;13.13;;
22248;SDS011;67538;52.180;5.646;2023-04-19T02:42:12;20.17;;;13.30;;
22248;SDS011;67538;52.180;5.646;2023-04-19T02:44:39;17.30;;;12.80;;
22248;SDS011;67538;52.180;5.646;2023-04-19T02:47:06;20.20;;;13.43;;
22248;SDS011;67538;52.180;5.646;2023-04-19T02:49:34;18.73;;;13.00;;
22248;SDS011;67538;52.180;5.646;2023-04-19T02:52:05;18.27;;;13.07;;
22248;SDS011;67538;52.180;5.646;2023-04-19T02:54:32;16.58;;;12.73;;
22248;SDS011;67538;52.180;5.646;2023-04-19T02:57:00;19.73;;;12.47;;
22248;SDS011;67538;52.180;5.646;2023-04-19T02:59:27;16.52;;;11.85;;
22248;SDS011;67538;52.180;5.646;2023-04-19T03:01:54;19.15;;;12.60;;
22248;SDS011;67538;52.180;5.646;2023-04-19T03:04:21;16.13;;;11.95;;
22248;SDS011;67538;52.180;5.646;2023-04-19T03:06:49;17.98;;;12.23;;
22248;SDS011;67538;52.180;5.646;2023-04-19T03:09:17;17.00;;;11.87;;
22248;SDS011;67538;52.180;5.646;2023-04-19T03:11:44;18.15;;;11.70;;
22248;SDS011;67538;52.180;5.646;2023-04-19T03:14:11;17.75;;;12.18;;
22248;SDS011;67538;52.180;5.646;2023-04-19T03:16:38;17.35;;;12.32;;
22248;SDS011;67538;52.180;5.646;2023-04-19T03:19:05;20.00;;;12.95;;
22248;SDS011;67538;52.180;5.646;2023-04-19T03:21:32;18.77;;;11.97;;
22248;SDS011;67538;52.180;5.646;2023-04-19T03:24:01;16.92;;;11.30;;
22248;SDS011;67538;52.180;5.646;2023-04-19T03:26:28;17.57;;;11.60;;
22248;SDS011;67538;52.180;5.646;2023-04-19T03:28:55;16.33;;;11.20;;
22248;SDS011;67538;52.180;5.646;2023-04-19T03:31:22;16.20;;;11.38;;
22248;SDS011;67538;52.180;5.646;2023-04-19T03:33:49;18.15;;;11.63;;
22248;SDS011;67538;52.180;5.646;2023-04-19T03:36:16;16.08;;;11.77;;
22248;SDS011;67538;52.180;5.646;2023-04-19T03:38:43;15.83;;;11.20;;
22248;SDS011;67538;52.180;5.646;2023-04-19T03:41:18;16.60;;;11.43;;
22248;SDS011;67538;52.180;5.646;2023-04-19T03:43:45;16.25;;;11.73;;
22248;SDS011;67538;52.180;5.646;2023-04-19T03:46:12;17.10;;;11.80;;
22248;SDS011;67538;52.180;5.646;2023-04-19T03:48:39;16.90;;;11.68;;
22248;SDS011;67538;52.180;5.646;2023-04-19T03:51:06;17.88;;;12.00;;
22248;SDS011;67538;52.180;5.646;2023-04-19T03:53:33;15.75;;;11.60;;
22248;SDS011;67538;52.180;5.646;2023-04-19T03:56:01;15.37;;;11.40;;
22248;SDS011;67538;52.180;5.646;2023-04-19T03:58:30;14.88;;;11.52;;
22248;SDS011;67538;52.180;5.646;2023-04-19T04:00:57;15.13;;;11.63;;
22248;SDS011;67538;52.180;5.646;2023-04-19T04:03:25;16.85;;;11.45;;
22248;SDS011;67538;52.180;5.646;2023-04-19T04:05:52;16.10;;;11.70;;
22248;SDS011;67538;52.180;5.646;2023-04-19T04:08:19;15.23;;;11.23;;
22248;SDS011;67538;52.180;5.646;2023-04-19T04:10:46;16.85;;;11.50;;
22248;SDS011;67538;52.180;5.646;2023-04-19T04:13:13;16.58;;;11.68;;
22248;SDS011;67538;52.180;5.646;2023-04-19T04:15:41;16.67;;;11.45;;
22248;SDS011;67538;52.180;5.646;2023-04-19T04:18:08;15.00;;;11.02;;
22248;SDS011;67538;52.180;5.646;2023-04-19T04:20:36;14.90;;;10.57;;
22248;SDS011;67538;52.180;5.646;2023-04-19T04:23:03;18.20;;;10.65;;
22248;SDS011;67538;52.180;5.646;2023-04-19T04:25:31;15.57;;;10.70;;
22248;SDS011;67538;52.180;5.646;2023-04-19T04:28:01;15.60;;;10.53;;
22248;SDS011;67538;52.180;5.646;2023-04-19T04:30:28;14.88;;;10.98;;
22248;SDS011;67538;52.180;5.646;2023-04-19T04:32:57;15.23;;;11.27;;
22248;SDS011;67538;52.180;5.646;2023-04-19T04:35:24;15.43;;;10.80;;
22248;SDS011;67538;52.180;5.646;2023-04-19T04:37:53;15.93;;;10.38;;
22248;SDS011;67538;52.180;5.646;2023-04-19T04:40:20;16.88;;;10.32;;
22248;SDS011;67538;52.180;5.646;2023-04-19T04:42:47;15.25;;;10.35;;
22248;SDS011;67538;52.180;5.646;2023-04-19T04:45:17;14.40;;;10.90;;
22248;SDS011;67538;52.180;5.646;2023-04-19T04:47:44;14.35;;;10.43;;
22248;SDS011;67538;52.180;5.646;2023-04-19T04:50:12;14.05;;;10.35;;
22248;SDS011;67538;52.180;5.646;2023-04-19T04:52:39;12.93;;;9.93;;
22248;SDS011;67538;52.180;5.646;2023-04-19T04:55:07;13.48;;;9.80;;
22248;SDS011;67538;52.180;5.646;2023-04-19T04:57:35;15.85;;;10.10;;
22248;SDS011;67538;52.180;5.646;2023-04-19T05:00:02;15.25;;;9.75;;
22248;SDS011;67538;52.180;5.646;2023-04-19T05:02:30;14.60;;;9.90;;
22248;SDS011;67538;52.180;5.646;2023-04-19T05:04:57;13.98;;;10.15;;
22248;SDS011;67538;52.180;5.646;2023-04-19T05:07:26;16.02;;;9.80;;
22248;SDS011;67538;52.180;5.646;2023-04-19T05:09:53;14.48;;;9.38;;
22248;SDS011;67538;52.180;5.646;2023-04-19T05:12:20;13.13;;;9.10;;
22248;SDS011;67538;52.180;5.646;2023-04-19T05:14:47;13.63;;;9.60;;
22248;SDS011;67538;52.180;5.646;2023-04-19T05:17:14;11.68;;;8.90;;
22248;SDS011;67538;52.180;5.646;2023-04-19T05:19:41;14.20;;;9.43;;
22248;SDS011;67538;52.180;5.646;2023-04-19T05:22:08;12.40;;;9.32;;
22248;SDS011;67538;52.180;5.646;2023-04-19T05:24:36;12.98;;;8.85;;
22248;SDS011;67538;52.180;5.646;2023-04-19T05:27:03;15.65;;;9.43;;
22248;SDS011;67538;52.180;5.646;2023-04-19T05:29:30;13.65;;;8.70;;
22248;SDS011;67538;52.180;5.646;2023-04-19T05:31:57;12.77;;;8.50;;
22248;SDS011;67538;52.180;5.646;2023-04-19T05:34:25;13.02;;;8.35;;
22248;SDS011;67538;52.180;5.646;2023-04-19T05:36:52;13.27;;;8.35;;
22248;SDS011;67538;52.180;5.646;2023-04-19T05:39:19;11.68;;;8.05;;
22248;SDS011;67538;52.180;5.646;2023-04-19T05:41:47;11.48;;;7.78;;
22248;SDS011;67538;52.180;5.646;2023-04-19T05:44:14;12.25;;;8.07;;
22248;SDS011;67538;52.180;5.646;2023-04-19T05:46:41;29.30;;;8.23;;
22248;SDS011;67538;52.180;5.646;2023-04-19T05:49:08;11.57;;;7.40;;
22248;SDS011;67538;52.180;5.646;2023-04-19T05:51:35;10.93;;;7.22;;
22248;SDS011;67538;52.180;5.646;2023-04-19T05:54:03;16.42;;;7.07;;
22248;SDS011;67538;52.180;5.646;2023-04-19T05:56:30;11.00;;;6.45;;
22248;SDS011;67538;52.180;5.646;2023-04-19T05:58:58;10.02;;;6.40;;
22248;SDS011;67538;52.180;5.646;2023-04-19T06:01:25;12.32;;;6.30;;
22248;SDS011;67538;52.180;5.646;2023-04-19T06:03:52;14.32;;;6.60;;
22248;SDS011;67538;52.180;5.646;2023-04-19T06:06:20;9.97;;;6.27;;
22248;SDS011;67538;52.180;5.646;2023-04-19T06:08:47;12.70;;;6.45;;
22248;SDS011;67538;52.180;5.646;2023-04-19T06:11:15;10.10;;;6.32;;
22248;SDS011;67538;52.180;5.646;2023-04-19T06:13:42;10.73;;;6.40;;
22248;SDS011;67538;52.180;5.646;2023-04-19T06:16:10;9.35;;;5.80;;
22248;SDS011;67538;52.180;5.646;2023-04-19T06:18:37;7.20;;;5.35;;
22248;SDS011;67538;52.180;5.646;2023-04-19T06:21:05;11.07;;;5.93;;
22248;SDS011;67538;52.180;5.646;2023-04-19T06:23:32;9.57;;;5.80;;
22248;SDS011;67538;52.180;5.646;2023-04-19T06:25:59;7.43;;;5.50;;
22248;SDS011;67538;52.180;5.646;2023-04-19T06:28:26;8.48;;;5.60;;
22248;SDS011;67538;52.180;5.646;2023-04-19T06:30:53;8.07;;;5.50;;
22248;SDS011;67538;52.180;5.646;2023-04-19T06:33:21;11.50;;;5.40;;
22248;SDS011;67538;52.180;5.646;2023-04-19T06:35:48;8.07;;;5.30;;
22248;SDS011;67538;52.180;5.646;2023-04-19T06:38:15;6.30;;;5.00;;
22248;SDS011;67538;52.180;5.646;2023-04-19T06:40:42;7.10;;;4.65;;
22248;SDS011;67538;52.180;5.646;2023-04-19T06:43:09;13.63;;;4.60;;
22248;SDS011;67538;52.180;5.646;2023-04-19T06:45:36;7.47;;;4.95;;
22248;SDS011;67538;52.180;5.646;2023-04-19T06:48:04;7.97;;;4.55;;
22248;SDS011;67538;52.180;5.646;2023-04-19T06:50:32;7.85;;;4.70;;
22248;SDS011;67538;52.180;5.646;2023-04-19T06:52:59;9.57;;;4.88;;
22248;SDS011;67538;52.180;5.646;2023-04-19T06:55:26;7.20;;;4.60;;
22248;SDS011;67538;52.180;5.646;2023-04-19T06:57:53;9.73;;;4.57;;
22248;SDS011;67538;52.180;5.646;2023-04-19T07:00:21;7.90;;;4.30;;
22248;SDS011;67538;52.180;5.646;2023-04-19T07:02:48;6.28;;;4.07;;
22248;SDS011;67538;52.180;5.646;2023-04-19T07:05:16;5.53;;;3.80;;
22248;SDS011;67538;52.180;5.646;2023-04-19T07:07:45;9.38;;;4.30;;
22248;SDS011;67538;52.180;5.646;2023-04-19T07:10:12;7.28;;;3.97;;
22248;SDS011;67538;52.180;5.646;2023-04-19T07:12:39;6.30;;;3.88;;
22248;SDS011;67538;52.180;5.646;2023-04-19T07:15:06;6.53;;;4.07;;
22248;SDS011;67538;52.180;5.646;2023-04-19T07:17:34;7.60;;;3.90;;
22248;SDS011;67538;52.180;5.646;2023-04-19T07:20:01;7.07;;;3.90;;
22248;SDS011;67538;52.180;5.646;2023-04-19T07:22:30;9.05;;;4.05;;
22248;SDS011;67538;52.180;5.646;2023-04-19T07:24:59;8.75;;;4.18;;
22248;SDS011;67538;52.180;5.646;2023-04-19T07:27:26;8.70;;;4.10;;
22248;SDS011;67538;52.180;5.646;2023-04-19T07:29:53;8.07;;;3.78;;
22248;SDS011;67538;52.180;5.646;2023-04-19T07:32:20;6.15;;;3.67;;
22248;SDS011;67538;52.180;5.646;2023-04-19T07:34:47;8.88;;;3.95;;
22248;SDS011;67538;52.180;5.646;2023-04-19T07:37:15;7.30;;;3.78;;
22248;SDS011;67538;52.180;5.646;2023-04-19T07:39:42;6.18;;;3.80;;
22248;SDS011;67538;52.180;5.646;2023-04-19T07:42:11;6.50;;;3.47;;
22248;SDS011;67538;52.180;5.646;2023-04-19T07:44:38;8.68;;;3.60;;
22248;SDS011;67538;52.180;5.646;2023-04-19T07:47:05;8.27;;;3.65;;
22248;SDS011;67538;52.180;5.646;2023-04-19T07:49:33;8.23;;;4.10;;
22248;SDS011;67538;52.180;5.646;2023-04-19T07:52:00;5.38;;;3.50;;
22248;SDS011;67538;52.180;5.646;2023-04-19T07:54:27;7.10;;;3.70;;
22248;SDS011;67538;52.180;5.646;2023-04-19T07:56:55;6.60;;;3.40;;
22248;SDS011;67538;52.180;5.646;2023-04-19T07:59:24;6.88;;;3.72;;
22248;SDS011;67538;52.180;5.646;2023-04-19T08:01:51;5.50;;;3.60;;
22248;SDS011;67538;52.180;5.646;2023-04-19T08:04:18;8.95;;;3.67;;
22248;SDS011;67538;52.180;5.646;2023-04-19T08:06:46;7.23;;;3.60;;
22248;SDS011;67538;52.180;5.646;2023-04-19T08:09:13;6.03;;;3.22;;
22248;SDS011;67538;52.180;5.646;2023-04-19T08:11:41;8.65;;;3.00;;
22248;SDS011;67538;52.180;5.646;2023-04-19T08:14:08;3.65;;;2.83;;
22248;SDS011;67538;52.180;5.646;2023-04-19T08:16:36;8.48;;;3.20;;
22248;SDS011;67538;52.180;5.646;2023-04-19T08:19:03;5.00;;;2.72;;
22248;SDS011;67538;52.180;5.646;2023-04-19T08:21:30;5.55;;;2.63;;
22248;SDS011;67538;52.180;5.646;2023-04-19T08:23:57;6.22;;;3.10;;
22248;SDS011;67538;52.180;5.646;2023-04-19T08:26:24;5.35;;;2.70;;
22248;SDS011;67538;52.180;5.646;2023-04-19T08:28:52;6.20;;;2.60;;
22248;SDS011;67538;52.180;5.646;2023-04-19T08:31:19;6.18;;;2.40;;
22248;SDS011;67538;52.180;5.646;2023-04-19T08:33:47;6.40;;;2.50;;
22248;SDS011;67538;52.180;5.646;2023-04-19T08:36:14;3.67;;;2.30;;
22248;SDS011;67538;52.180;5.646;2023-04-19T08:38:42;6.82;;;2.40;;
22248;SDS011;67538;52.180;5.646;2023-04-19T08:41:10;6.78;;;2.40;;
22248;SDS011;67538;52.180;5.646;2023-04-19T08:43:38;7.05;;;2.60;;
22248;SDS011;67538;52.180;5.646;2023-04-19T08:46:06;4.30;;;2.50;;
22248;SDS011;67538;52.180;5.646;2023-04-19T08:48:35;4.45;;;2.10;;
22248;SDS011;67538;52.180;5.646;2023-04-19T08:51:04;4.80;;;2.10;;
22248;SDS011;67538;52.180;5.646;2023-04-19T08:53:32;5.07;;;2.13;;
22248;SDS011;67538;52.180;5.646;2023-04-19T08:56:00;3.55;;;2.10;;
22248;SDS011;67538;52.180;5.646;2023-04-19T08:58:28;4.32;;;2.20;;
22248;SDS011;67538;52.180;5.646;2023-04-19T09:00:57;4.82;;;2.47;;
22248;SDS011;67538;52.180;5.646;2023-04-19T09:03:24;4.50;;;2.30;;
22248;SDS011;67538;52.180;5.646;2023-04-19T09:05:51;3.55;;;2.33;;
22248;SDS011;67538;52.180;5.646;2023-04-19T09:08:20;5.65;;;2.55;;
22248;SDS011;67538;52.180;5.646;2023-04-19T09:10:52;5.95;;;2.40;;
22248;SDS011;67538;52.180;5.646;2023-04-19T09:13:20;2.83;;;2.20;;
22248;SDS011;67538;52.180;5.646;2023-04-19T09:15:47;5.93;;;2.58;;
22248;SDS011;67538;52.180;5.646;2023-04-19T09:18:15;5.30;;;2.35;;
22248;SDS011;67538;52.180;5.646;2023-04-19T09:20:43;4.25;;;2.50;;
22248;SDS011;67538;52.180;5.646;2023-04-19T09:23:11;4.20;;;2.42;;
22248;SDS011;67538;52.180;5.646;2023-04-19T09:25:41;3.47;;;2.40;;
22248;SDS011;67538;52.180;5.646;2023-04-19T09:28:17;6.83;;;2.70;;
22248;SDS011;67538;52.180;5.646;2023-04-19T09:30:44;5.20;;;2.53;;
22248;SDS011;67538;52.180;5.646;2023-04-19T09:33:12;11.63;;;2.73;;
22248;SDS011;67538;52.180;5.646;2023-04-19T09:35:40;11.73;;;2.75;;
22248;SDS011;67538;52.180;5.646;2023-04-19T09:38:08;5.88;;;2.28;;
22248;SDS011;67538;52.180;5.646;2023-04-19T09:40:36;5.85;;;2.50;;
22248;SDS011;67538;52.180;5.646;2023-04-19T09:43:05;4.30;;;2.50;;
22248;SDS011;67538;52.180;5.646;2023-04-19T09:45:39;6.22;;;2.63;;
22248;SDS011;67538;52.180;5.646;2023-04-19T09:48:07;3.57;;;2.40;;
22248;SDS011;67538;52.180;5.646;2023-04-19T09:50:36;3.33;;;2.50;;
22248;SDS011;67538;52.180;5.646;2023-04-19T09:53:16;4.18;;;2.10;;
22248;SDS011;67538;52.180;5.646;2023-04-19T09:55:44;5.68;;;2.05;;
22248;SDS011;67538;52.180;5.646;2023-04-19T09:58:13;4.45;;;2.40;;
22248;SDS011;67538;52.180;5.646;2023-04-19T10:00:41;3.60;;;2.38;;
22248;SDS011;67538;52.180;5.646;2023-04-19T10:03:12;3.92;;;2.10;;
22248;SDS011;67538;52.180;5.646;2023-04-19T10:05:40;4.18;;;2.13;;
22248;SDS011;67538;52.180;5.646;2023-04-19T10:08:09;6.18;;;2.20;;
22248;SDS011;67538;52.180;5.646;2023-04-19T10:10:37;6.13;;;2.10;;
22248;SDS011;67538;52.180;5.646;2023-04-19T10:13:06;3.47;;;2.07;;
22248;SDS011;67538;52.180;5.646;2023-04-19T10:15:37;6.03;;;2.13;;
22248;SDS011;67538;52.180;5.646;2023-04-19T10:18:07;3.85;;;2.20;;
22248;SDS011;67538;52.180;5.646;2023-04-19T10:20:36;4.50;;;2.30;;
22248;SDS011;67538;52.180;5.646;2023-04-19T10:23:09;6.00;;;2.10;;
22248;SDS011;67538;52.180;5.646;2023-04-19T10:25:36;4.80;;;1.88;;
22248;SDS011;67538;52.180;5.646;2023-04-19T10:28:03;6.15;;;2.20;;
22248;SDS011;67538;52.180;5.646;2023-04-19T10:30:31;11.85;;;2.40;;
22248;SDS011;67538;52.180;5.646;2023-04-19T10:32:59;5.60;;;2.67;;
22248;SDS011;67538;52.180;5.646;2023-04-19T10:35:32;5.68;;;2.30;;
22248;SDS011;67538;52.180;5.646;2023-04-19T10:38:05;6.25;;;2.25;;
22248;SDS011;67538;52.180;5.646;2023-04-19T10:43:20;6.43;;;2.40;;
22248;SDS011;67538;52.180;5.646;2023-04-19T10:45:47;9.73;;;2.40;;
22248;SDS011;67538;52.180;5.646;2023-04-19T10:48:38;25.43;;;2.80;;
22248;SDS011;67538;52.180;5.646;2023-04-19T10:51:12;4.97;;;2.40;;
22248;SDS011;67538;52.180;5.646;2023-04-19T10:53:44;5.57;;;2.60;;
22248;SDS011;67538;52.180;5.646;2023-04-19T10:56:16;5.47;;;2.50;;
22248;SDS011;67538;52.180;5.646;2023-04-19T11:01:46;4.88;;;2.50;;
22248;SDS011;67538;52.180;5.646;2023-04-19T11:04:20;8.50;;;2.60;;
22248;SDS011;67538;52.180;5.646;2023-04-19T11:06:58;9.90;;;2.93;;
22248;SDS011;67538;52.180;5.646;2023-04-19T11:09:28;9.97;;;2.60;;
22248;SDS011;67538;52.180;5.646;2023-04-19T11:11:59;5.50;;;2.25;;
22248;SDS011;67538;52.180;5.646;2023-04-19T11:14:29;8.88;;;2.50;;
22248;SDS011;67538;52.180;5.646;2023-04-19T11:16:59;3.90;;;2.60;;
22248;SDS011;67538;52.180;5.646;2023-04-19T11:19:27;4.10;;;2.50;;
22248;SDS011;67538;52.180;5.646;2023-04-19T11:21:56;4.88;;;2.80;;
22248;SDS011;67538;52.180;5.646;2023-04-19T11:24:24;5.88;;;2.72;;
22248;SDS011;67538;52.180;5.646;2023-04-19T11:26:52;6.20;;;2.92;;
22248;SDS011;67538;52.180;5.646;2023-04-19T11:29:22;4.03;;;2.40;;
22248;SDS011;67538;52.180;5.646;2023-04-19T11:31:49;5.82;;;2.72;;
22248;SDS011;67538;52.180;5.646;2023-04-19T11:34:16;7.45;;;2.70;;
22248;SDS011;67538;52.180;5.646;2023-04-19T11:36:49;5.80;;;2.83;;
22248;SDS011;67538;52.180;5.646;2023-04-19T11:39:17;9.38;;;2.80;;
22248;SDS011;67538;52.180;5.646;2023-04-19T11:41:44;17.85;;;3.30;;
22248;SDS011;67538;52.180;5.646;2023-04-19T11:44:12;8.18;;;3.03;;
22248;SDS011;67538;52.180;5.646;2023-04-19T11:46:40;4.97;;;2.65;;
22248;SDS011;67538;52.180;5.646;2023-04-19T11:49:07;5.97;;;2.80;;
22248;SDS011;67538;52.180;5.646;2023-04-19T11:51:34;4.03;;;2.95;;
22248;SDS011;67538;52.180;5.646;2023-04-19T11:54:12;6.47;;;2.63;;
22248;SDS011;67538;52.180;5.646;2023-04-19T11:56:55;4.95;;;2.83;;
22248;SDS011;67538;52.180;5.646;2023-04-19T11:59:23;5.60;;;3.15;;
22248;SDS011;67538;52.180;5.646;2023-04-19T12:01:50;4.57;;;2.60;;
22248;SDS011;67538;52.180;5.646;2023-04-19T12:04:18;7.38;;;3.03;;
22248;SDS011;67538;52.180;5.646;2023-04-19T12:06:53;7.53;;;3.22;;
22248;SDS011;67538;52.180;5.646;2023-04-19T12:09:24;5.00;;;2.88;;
22248;SDS011;67538;52.180;5.646;2023-04-19T12:11:51;6.88;;;2.90;;
22248;SDS011;67538;52.180;5.646;2023-04-19T12:14:19;7.35;;;2.80;;
22248;SDS011;67538;52.180;5.646;2023-04-19T12:19:36;5.53;;;3.00;;
22248;SDS011;67538;52.180;5.646;2023-04-19T12:22:08;40.17;;;4.22;;
22248;SDS011;67538;52.180;5.646;2023-04-19T12:24:38;7.85;;;3.10;;
22248;SDS011;67538;52.180;5.646;2023-04-19T12:27:05;6.47;;;3.17;;
22248;SDS011;67538;52.180;5.646;2023-04-19T12:29:33;7.18;;;3.25;;
22248;SDS011;67538;52.180;5.646;2023-04-19T12:32:00;9.32;;;3.05;;
22248;SDS011;67538;52.180;5.646;2023-04-19T12:34:27;9.53;;;3.60;;
22248;SDS011;67538;52.180;5.646;2023-04-19T12:36:55;9.27;;;3.30;;
22248;SDS011;67538;52.180;5.646;2023-04-19T12:39:22;9.50;;;3.30;;
22248;SDS011;67538;52.180;5.646;2023-04-19T12:41:51;8.25;;;3.10;;
22248;SDS011;67538;52.180;5.646;2023-04-19T12:44:18;65.70;;;5.13;;
22248;SDS011;67538;52.180;5.646;2023-04-19T12:46:45;24.80;;;3.17;;
22248;SDS011;67538;52.180;5.646;2023-04-19T12:49:12;5.85;;;2.60;;
22248;SDS011;67538;52.180;5.646;2023-04-19T12:51:39;12.38;;;3.05;;
22248;SDS011;67538;52.180;5.646;2023-04-19T12:54:07;8.45;;;2.60;;
22248;SDS011;67538;52.180;5.646;2023-04-19T12:56:34;6.95;;;2.53;;
22248;SDS011;67538;52.180;5.646;2023-04-19T12:59:03;5.05;;;2.97;;
22248;SDS011;67538;52.180;5.646;2023-04-19T13:01:31;6.47;;;3.03;;
22248;SDS011;67538;52.180;5.646;2023-04-19T13:03:58;5.78;;;2.80;;
22248;SDS011;67538;52.180;5.646;2023-04-19T13:06:25;4.95;;;2.42;;
22248;SDS011;67538;52.180;5.646;2023-04-19T13:08:52;11.05;;;2.88;;
22248;SDS011;67538;52.180;5.646;2023-04-19T13:11:19;4.78;;;2.65;;
22248;SDS011;67538;52.180;5.646;2023-04-19T13:13:48;19.70;;;3.70;;
22248;SDS011;67538;52.180;5.646;2023-04-19T13:16:18;7.82;;;2.60;;
22248;SDS011;67538;52.180;5.646;2023-04-19T13:18:45;14.00;;;2.72;;
22248;SDS011;67538;52.180;5.646;2023-04-19T13:21:12;5.13;;;2.50;;
22248;SDS011;67538;52.180;5.646;2023-04-19T13:23:41;5.13;;;2.20;;
22248;SDS011;67538;52.180;5.646;2023-04-19T13:26:08;10.05;;;2.40;;
22248;SDS011;67538;52.180;5.646;2023-04-19T13:28:36;6.03;;;2.50;;
22248;SDS011;67538;52.180;5.646;2023-04-19T13:31:04;6.15;;;2.60;;
22248;SDS011;67538;52.180;5.646;2023-04-19T13:33:32;6.32;;;2.22;;
22248;SDS011;67538;52.180;5.646;2023-04-19T13:35:59;6.63;;;2.60;;
22248;SDS011;67538;52.180;5.646;2023-04-19T13:38:26;10.40;;;2.90;;
22248;SDS011;67538;52.180;5.646;2023-04-19T13:40:53;11.00;;;2.45;;
22248;SDS011;67538;52.180;5.646;2023-04-19T13:43:20;16.55;;;2.60;;
22248;SDS011;67538;52.180;5.646;2023-04-19T13:45:47;5.20;;;2.35;;
22248;SDS011;67538;52.180;5.646;2023-04-19T13:48:14;4.70;;;2.50;;
22248;SDS011;67538;52.180;5.646;2023-04-19T13:50:43;5.90;;;2.42;;
22248;SDS011;67538;52.180;5.646;2023-04-19T13:53:10;9.82;;;2.60;;
22248;SDS011;67538;52.180;5.646;2023-04-19T13:55:37;6.93;;;2.13;;
22248;SDS011;67538;52.180;5.646;2023-04-19T13:58:05;6.97;;;2.13;;
22248;SDS011;67538;52.180;5.646;2023-04-19T14:00:32;5.70;;;2.50;;
22248;SDS011;67538;52.180;5.646;2023-04-19T14:02:59;6.80;;;2.38;;
22248;SDS011;67538;52.180;5.646;2023-04-19T14:05:26;6.22;;;2.50;;
22248;SDS011;67538;52.180;5.646;2023-04-19T14:07:54;16.95;;;3.38;;
22248;SDS011;67538;52.180;5.646;2023-04-19T14:10:22;8.60;;;2.30;;
22248;SDS011;67538;52.180;5.646;2023-04-19T14:12:49;6.72;;;2.67;;
22248;SDS011;67538;52.180;5.646;2023-04-19T14:15:17;6.35;;;2.85;;
22248;SDS011;67538;52.180;5.646;2023-04-19T14:17:44;5.97;;;2.55;;
22248;SDS011;67538;52.180;5.646;2023-04-19T14:20:12;14.73;;;3.10;;
22248;SDS011;67538;52.180;5.646;2023-04-19T14:22:39;4.43;;;2.88;;
22248;SDS011;67538;52.180;5.646;2023-04-19T14:25:08;8.65;;;2.58;;
22248;SDS011;67538;52.180;5.646;2023-04-19T14:27:36;11.88;;;3.10;;
22248;SDS011;67538;52.180;5.646;2023-04-19T14:30:04;4.50;;;3.00;;
22248;SDS011;67538;52.180;5.646;2023-04-19T14:32:33;4.97;;;2.70;;
22248;SDS011;67538;52.180;5.646;2023-04-19T14:35:01;12.93;;;2.50;;
22248;SDS011;67538;52.180;5.646;2023-04-19T14:37:28;8.25;;;2.95;;
22248;SDS011;67538;52.180;5.646;2023-04-19T14:39:55;6.57;;;2.92;;
22248;SDS011;67538;52.180;5.646;2023-04-19T14:42:24;5.45;;;2.80;;
22248;SDS011;67538;52.180;5.646;2023-04-19T14:44:51;7.38;;;3.15;;
22248;SDS011;67538;52.180;5.646;2023-04-19T14:47:18;6.68;;;3.00;;
22248;SDS011;67538;52.180;5.646;2023-04-19T14:49:45;9.30;;;3.23;;